Time;durP1;ratioP1;P1;durP2;ratioP2;P2;SDS_P1;SDS_P2;PMS_P1;PMS_P2;Temp;Humidity;BMP_temperature;BMP_pressure;BME280_temperature;BME280_humidity;BME280_pressure;Samples;Min_cycle;Max_cycle;Signal;HPM_P1;HPM_P2
2022/07/30 00:00:38;;;;;;;1.13;0.88;;;;;;;16.89;100.00;101127.94;5024823;28;20033;-47
2022/07/30 00:03:04;;;;;;;2.35;0.50;;;;;;;16.87;100.00;101127.34;5020614;28;20037;-50
2022/07/30 00:05:29;;;;;;;1.48;0.60;;;;;;;16.82;100.00;101125.31;5020228;28;20042;-50
2022/07/30 00:07:54;;;;;;;1.60;0.75;;;;;;;16.79;100.00;101131.91;5027643;28;20101;-50
2022/07/30 00:10:21;;;;;;;1.58;0.45;;;;;;;16.81;100.00;101131.72;5019335;28;20061;-47
2022/07/30 00:12:47;;;;;;;2.25;0.50;;;;;;;16.83;100.00;101132.31;5020587;28;20021;-48
2022/07/30 00:15:13;;;;;;;2.80;0.65;;;;;;;16.84;100.00;101130.47;5019339;28;20176;-48
2022/07/30 00:17:38;;;;;;;0.20;0.10;;;;;;;16.81;100.00;101122.88;5020640;28;20040;-51
2022/07/30 00:20:04;;;;;;;3.92;0.52;;;;;;;16.77;100.00;101119.75;5028152;28;20064;-46
2022/07/30 00:22:30;;;;;;;1.13;0.63;;;;;;;16.77;100.00;101117.06;5018606;28;20033;-49
2022/07/30 00:24:55;;;;;;;3.50;0.80;;;;;;;16.71;100.00;101117.94;5031167;28;20036;-50
2022/07/30 00:27:21;;;;;;;1.40;0.50;;;;;;;16.64;100.00;101119.84;5031744;28;20026;-50
2022/07/30 00:29:46;;;;;;;0.60;0.32;;;;;;;16.58;100.00;101118.84;5024481;28;20039;-52
2022/07/30 00:32:11;;;;;;;3.30;0.40;;;;;;;16.51;100.00;101113.53;5024845;28;20387;-49
2022/07/30 00:34:37;;;;;;;0.60;0.60;;;;;;;16.45;100.00;101116.25;5019617;28;20045;-52
2022/07/30 00:37:02;;;;;;;5.57;0.70;;;;;;;16.44;100.00;101111.91;5021526;28;20326;-47
2022/07/30 00:39:29;;;;;;;3.88;0.60;;;;;;;16.46;100.00;101118.69;5024801;28;20077;-48
2022/07/30 00:41:57;;;;;;;2.08;0.60;;;;;;;16.49;100.00;101115.59;5017901;28;20025;-50
2022/07/30 00:44:22;;;;;;;1.77;0.95;;;;;;;16.54;100.00;101110.41;5040833;28;20601;-45
2022/07/30 00:46:48;;;;;;;1.23;1.00;;;;;;;16.56;100.00;101108.34;5018009;28;20153;-54
2022/07/30 00:49:13;;;;;;;2.35;0.80;;;;;;;16.56;100.00;101104.84;5031195;28;20632;-49
2022/07/30 00:51:39;;;;;;;2.42;0.73;;;;;;;16.55;100.00;101103.22;5034933;28;20474;-49
2022/07/30 00:54:04;;;;;;;8.50;0.80;;;;;;;16.57;100.00;101106.47;5020735;28;20359;-48
2022/07/30 00:56:30;;;;;;;7.45;1.52;;;;;;;16.58;100.00;101103.59;5033573;28;20026;-49
2022/07/30 00:58:55;;;;;;;3.75;1.20;;;;;;;16.61;100.00;101112.25;5020357;28;20033;-47
2022/07/30 01:01:20;;;;;;;1.90;0.70;;;;;;;16.63;100.00;101116.34;5024305;28;20124;-48
2022/07/30 01:03:46;;;;;;;2.95;0.55;;;;;;;16.62;100.00;101106.66;5025117;28;20390;-49
2022/07/30 01:06:11;;;;;;;2.17;1.40;;;;;;;16.62;100.00;101108.53;5025373;28;20083;-49
2022/07/30 01:08:37;;;;;;;3.28;0.85;;;;;;;16.60;100.00;101110.59;5026577;28;20467;-52
2022/07/30 01:11:02;;;;;;;1.63;0.70;;;;;;;16.54;100.00;101112.28;5021862;28;20502;-49
2022/07/30 01:13:28;;;;;;;4.45;0.77;;;;;;;16.49;100.00;101110.22;5025736;28;20037;-46
2022/07/30 01:15:53;;;;;;;1.08;0.88;;;;;;;16.45;100.00;101108.22;5024115;28;20041;-51
2022/07/30 01:18:21;;;;;;;2.08;1.40;;;;;;;16.40;100.00;101108.03;5017711;28;20034;-49
2022/07/30 01:20:59;;;;;;;12.95;1.70;;;;;;;16.36;100.00;101099.59;5007141;28;20115;-49
2022/07/30 01:23:36;;;;;;;1.40;1.30;;;;;;;16.29;100.00;101110.34;5010217;28;20037;-51
2022/07/30 01:26:06;;;;;;;2.38;1.15;;;;;;;16.29;100.00;101112.22;5003873;28;20231;-47
2022/07/30 01:28:35;;;;;;;1.30;1.08;;;;;;;16.29;100.00;101113.03;5020297;28;20030;-51
2022/07/30 01:31:03;;;;;;;1.13;0.57;;;;;;;16.28;100.00;101107.88;5016835;28;20033;-49
2022/07/30 01:33:30;;;;;;;7.63;1.70;;;;;;;16.28;100.00;101111.38;5019433;28;20084;-52
2022/07/30 01:35:57;;;;;;;1.92;0.93;;;;;;;16.27;100.00;101107.06;5017946;28;20037;-48
2022/07/30 01:38:25;;;;;;;8.00;1.25;;;;;;;16.25;100.00;101114.47;5017446;28;20041;-51
2022/07/30 01:40:52;;;;;;;3.60;1.35;;;;;;;16.25;100.00;101114.47;5020237;28;20124;-46
2022/07/30 01:43:19;;;;;;;2.88;1.58;;;;;;;16.27;100.00;101114.28;5021360;28;20060;-50
2022/07/30 01:45:47;;;;;;;6.57;2.08;;;;;;;16.26;100.00;101108.13;5019176;28;20080;-50
2022/07/30 01:48:15;;;;;;;2.10;0.93;;;;;;;16.23;100.00;101111.19;5026761;28;20029;-46
2022/07/30 01:50:44;;;;;;;3.20;1.27;;;;;;;16.19;100.00;101110.00;5015808;28;20087;-50
2022/07/30 01:53:14;;;;;;;1.92;1.35;;;;;;;16.16;100.00;101114.94;5016146;28;20061;-47
2022/07/30 01:55:41;;;;;;;4.93;1.20;;;;;;;16.09;100.00;101104.28;5020547;28;20406;-49
2022/07/30 01:58:09;;;;;;;5.78;1.70;;;;;;;16.04;100.00;101109.44;5028632;28;20022;-52
2022/07/30 02:00:39;;;;;;;4.18;1.25;;;;;;;15.95;100.00;101108.03;5027805;28;20029;-50
2022/07/30 02:03:07;;;;;;;6.43;1.35;;;;;;;15.91;100.00;101108.44;5020543;28;20049;-48
2022/07/30 02:05:34;;;;;;;3.55;1.02;;;;;;;15.86;100.00;101110.94;5023517;28;20022;-48
2022/07/30 02:08:11;;;;;;;4.18;1.73;;;;;;;15.82;100.00;101115.03;5029872;28;20030;-53
2022/07/30 02:10:53;;;;;;;2.97;1.48;;;;;;;15.79;100.00;101112.78;5021060;28;20049;-49
2022/07/30 02:13:25;;;;;;;4.22;1.63;;;;;;;15.79;100.00;101115.47;5023168;28;20546;-51
2022/07/30 02:15:58;;;;;;;2.88;1.27;;;;;;;15.73;100.00;101108.28;5019288;28;20513;-49
2022/07/30 02:18:31;;;;;;;5.00;1.67;;;;;;;15.68;100.00;101108.88;5029011;28;20099;-49
2022/07/30 02:21:03;;;;;;;6.35;2.75;;;;;;;15.65;100.00;101113.84;5017451;28;20111;-51
2022/07/30 02:23:34;;;;;;;4.45;1.83;;;;;;;15.60;100.00;101111.78;5018205;28;20366;-48
2022/07/30 02:26:00;;;;;;;11.18;2.38;;;;;;;15.55;100.00;101114.25;5023439;28;20474;-50
2022/07/30 02:28:29;;;;;;;5.05;1.65;;;;;;;15.55;100.00;101116.13;5021989;28;20037;-50
2022/07/30 02:30:58;;;;;;;1.55;0.90;;;;;;;15.51;100.00;101113.03;5021824;28;20037;-49
2022/07/30 02:33:32;;;;;;;2.00;1.48;;;;;;;15.48;100.00;101114.25;5019191;28;20532;-53
2022/07/30 02:35:58;;;;;;;4.50;1.73;;;;;;;15.53;100.00;101120.84;5010044;28;20041;-47
2022/07/30 02:38:26;;;;;;;3.08;1.50;;;;;;;15.51;100.00;101109.53;5017481;28;20566;-51
2022/07/30 02:40:54;;;;;;;3.95;1.85;;;;;;;15.43;100.00;101106.03;5015395;28;20041;-46
2022/07/30 02:43:24;;;;;;;1.65;1.55;;;;;;;15.46;100.00;101115.50;5022405;28;20021;-50
2022/07/30 02:45:49;;;;;;;2.25;1.67;;;;;;;15.42;100.00;101115.09;5026061;28;20183;-48
2022/07/30 02:48:16;;;;;;;2.38;2.17;;;;;;;15.37;100.00;101106.88;5024965;28;20030;-50
2022/07/30 02:50:43;;;;;;;8.88;1.50;;;;;;;15.34;100.00;101112.66;5027716;28;20052;-49
2022/07/30 02:53:11;;;;;;;3.10;1.92;;;;;;;15.29;100.00;101112.44;5030495;28;20033;-50
2022/07/30 02:55:38;;;;;;;4.03;1.10;;;;;;;15.27;100.00;101109.97;5025827;28;20021;-49
2022/07/30 02:58:06;;;;;;;3.42;1.58;;;;;;;15.24;100.00;101107.72;5021885;28;20080;-51
2022/07/30 03:00:33;;;;;;;2.33;0.68;;;;;;;15.22;100.00;101103.63;5023753;28;20025;-51
2022/07/30 03:03:00;;;;;;;5.03;2.22;;;;;;;15.16;100.00;101099.91;5025841;28;20068;-51
2022/07/30 03:05:26;;;;;;;6.20;1.30;;;;;;;15.12;100.00;101101.34;5030069;28;20414;-48
2022/07/30 03:07:54;;;;;;;6.32;2.72;;;;;;;15.12;100.00;101105.88;5020596;28;20032;-50
2022/07/30 03:10:19;;;;;;;8.57;2.60;;;;;;;15.14;100.00;101106.50;5026619;28;20049;-50
2022/07/30 03:12:46;;;;;;;1.85;1.60;;;;;;;15.12;100.00;101104.03;5022353;28;20025;-52
2022/07/30 03:15:13;;;;;;;4.22;2.15;;;;;;;15.11;100.00;101097.03;5022481;28;20029;-50
2022/07/30 03:17:45;;;;;;;3.22;2.08;;;;;;;15.12;100.00;101104.03;5026732;28;20108;-52
2022/07/30 03:20:14;;;;;;;7.18;3.35;;;;;;;15.16;100.00;101101.78;5018751;28;20381;-47
2022/07/30 03:22:44;;;;;;;4.63;2.42;;;;;;;15.15;100.00;101100.94;5023387;28;20378;-48
2022/07/30 03:25:13;;;;;;;3.40;2.47;;;;;;;15.17;100.00;101106.06;5014170;28;20120;-48
2022/07/30 03:27:39;;;;;;;3.28;1.60;;;;;;;15.15;100.00;101086.75;5028586;28;20081;-48
2022/07/30 03:30:05;;;;;;;4.97;1.95;;;;;;;15.09;100.00;101092.94;5028634;28;20079;-49
2022/07/30 03:32:31;;;;;;;5.57;2.75;;;;;;;15.04;100.00;101099.69;5023395;28;20378;-48
2022/07/30 03:34:58;;;;;;;4.32;2.28;;;;;;;15.02;100.00;101088.44;5028069;28;20084;-52
2022/07/30 03:37:25;;;;;;;5.05;2.28;;;;;;;14.98;100.00;101087.19;5026995;28;20021;-52
2022/07/30 03:39:52;;;;;;;7.43;2.63;;;;;;;14.94;100.00;101087.78;5014714;28;20036;-53
2022/07/30 03:42:19;;;;;;;3.22;2.03;;;;;;;14.88;100.00;101086.78;5024541;28;20549;-50
2022/07/30 03:44:46;;;;;;;3.28;2.45;;;;;;;14.86;100.00;101093.34;5023845;28;20104;-48
2022/07/30 03:47:13;;;;;;;11.07;3.78;;;;;;;14.83;100.00;101089.22;5024084;28;20095;-52
2022/07/30 03:49:39;;;;;;;6.70;2.80;;;;;;;14.79;100.00;101094.16;5014949;28;20060;-48
2022/07/30 03:52:05;;;;;;;4.20;2.42;;;;;;;14.77;100.00;101096.22;5022127;28;20634;-50
2022/07/30 03:54:32;;;;;;;6.38;1.77;;;;;;;14.76;100.00;101113.22;5026801;28;20493;-49
2022/07/30 03:57:02;;;;;;;4.75;2.38;;;;;;;14.77;100.00;101106.06;5027736;28;20033;-50
2022/07/30 03:59:28;;;;;;;4.97;2.55;;;;;;;14.84;100.00;101101.53;5025165;28;20251;-47
2022/07/30 04:01:54;;;;;;;5.05;2.95;;;;;;;14.92;100.00;101095.19;5025443;28;20140;-50
2022/07/30 04:04:19;;;;;;;6.75;3.25;;;;;;;14.96;100.00;101094.56;5021556;28;20100;-51
2022/07/30 04:06:45;;;;;;;2.97;2.10;;;;;;;15.03;100.00;101103.41;5018892;28;20481;-49
2022/07/30 04:09:11;;;;;;;3.22;2.92;;;;;;;15.05;100.00;101087.19;5020750;28;20082;-47
2022/07/30 04:11:38;;;;;;;5.15;1.98;;;;;;;15.05;100.00;101089.88;5021119;28;20483;-49
2022/07/30 04:14:04;;;;;;;3.40;1.83;;;;;;;15.08;100.00;101088.63;5023780;28;20037;-48
2022/07/30 04:16:42;;;;;;;4.95;2.58;;;;;;;15.09;100.00;101092.94;5023927;28;20037;-48
2022/07/30 04:19:14;;;;;;;2.90;2.17;;;;;;;15.12;100.00;101103.19;5018450;28;20049;-49
2022/07/30 04:21:40;;;;;;;4.70;3.60;;;;;;;15.15;100.00;101108.94;5025666;28;20048;-49
2022/07/30 04:24:09;;;;;;;5.85;2.88;;;;;;;15.16;100.00;101104.44;5023416;28;20025;-48
2022/07/30 04:26:36;;;;;;;4.20;1.67;;;;;;;15.16;100.00;101094.56;5027075;28;20051;-51
2022/07/30 04:29:05;;;;;;;3.90;2.75;;;;;;;15.18;100.00;101084.50;5016898;28;20038;-51
2022/07/30 04:31:34;;;;;;;2.38;1.77;;;;;;;15.15;100.00;101084.09;5016912;28;20029;-51
2022/07/30 04:34:02;;;;;;;8.82;3.55;;;;;;;15.09;100.00;101076.91;5021479;28;20124;-50
2022/07/30 04:36:28;;;;;;;19.55;4.93;;;;;;;15.00;100.00;101074.47;5022195;28;20071;-52
2022/07/30 04:38:54;;;;;;;2.53;2.33;;;;;;;14.97;100.00;101082.88;5013550;28;20037;-51
2022/07/30 04:41:20;;;;;;;7.32;2.35;;;;;;;14.93;100.00;101084.31;5024531;28;20033;-50
2022/07/30 04:43:45;;;;;;;2.97;2.08;;;;;;;14.90;100.00;101091.91;5024327;28;20379;-52
2022/07/30 04:46:10;;;;;;;1.73;1.63;;;;;;;14.92;100.00;101098.69;5034425;28;20562;-51
2022/07/30 04:48:36;;;;;;;3.47;2.40;;;;;;;14.87;100.00;101101.16;5012989;28;20025;-52
2022/07/30 04:51:07;;;;;;;9.20;2.97;;;;;;;14.84;100.00;101096.19;5021729;28;20116;-50
2022/07/30 04:53:34;;;;;;;1.75;1.30;;;;;;;14.83;100.00;101097.25;5021346;28;20029;-51
2022/07/30 04:56:01;;;;;;;2.95;1.80;;;;;;;14.83;100.00;101099.91;5028727;28;20033;-47
2022/07/30 04:58:27;;;;;;;3.92;1.95;;;;;;;14.92;100.00;101104.03;5024041;28;20082;-47
2022/07/30 05:00:56;;;;;;;1.65;1.55;;;;;;;15.02;100.00;101104.44;5023511;28;20017;-49
2022/07/30 05:03:23;;;;;;;6.38;1.95;;;;;;;15.05;100.00;101106.72;5020273;28;20025;-48
2022/07/30 05:05:49;;;;;;;3.78;2.28;;;;;;;15.08;100.00;101107.31;5023980;28;20109;-49
2022/07/30 05:08:15;;;;;;;2.55;1.67;;;;;;;15.13;100.00;101112.88;5029219;28;20029;-49
2022/07/30 05:10:43;;;;;;;4.32;2.60;;;;;;;15.19;100.00;101104.03;5016108;28;20053;-49
2022/07/30 05:13:13;;;;;;;3.92;1.27;;;;;;;15.23;100.00;101111.44;5024979;28;20040;-51
2022/07/30 05:15:38;;;;;;;5.50;1.83;;;;;;;15.26;100.00;101115.53;5029530;28;20405;-47
2022/07/30 05:18:04;;;;;;;2.75;0.98;;;;;;;15.28;100.00;101113.47;5034181;28;20034;-48
2022/07/30 05:20:29;;;;;;;1.75;1.35;;;;;;;15.23;100.00;101115.94;5024094;28;20037;-50
2022/07/30 05:22:54;;;;;;;4.28;2.30;;;;;;;15.20;100.00;101113.69;5020598;28;20095;-51
2022/07/30 05:25:20;;;;;;;6.10;1.40;;;;;;;15.19;100.00;101112.03;5017368;28;20045;-50
2022/07/30 05:27:45;;;;;;;3.97;1.52;;;;;;;15.23;100.00;101105.25;5025924;28;20053;-48
2022/07/30 05:30:11;;;;;;;1.95;1.48;;;;;;;15.23;100.00;101094.56;5029846;28;20510;-48
2022/07/30 05:32:36;;;;;;;3.65;1.48;;;;;;;15.23;100.00;101100.75;5024428;28;20037;-52
2022/07/30 05:35:02;;;;;;;4.22;1.13;;;;;;;15.22;100.00;101096.41;5028066;28;20068;-48
2022/07/30 05:37:27;;;;;;;3.97;0.73;;;;;;;15.20;100.00;101089.63;5031981;28;20056;-48
2022/07/30 05:39:53;;;;;;;3.10;1.13;;;;;;;15.22;100.00;101095.59;5032766;28;20053;-49
2022/07/30 05:42:18;;;;;;;1.85;0.82;;;;;;;15.24;100.00;101091.69;5021936;28;20255;-47
2022/07/30 05:44:43;;;;;;;3.65;1.67;;;;;;;15.30;100.00;101087.38;5035342;28;20024;-47
2022/07/30 05:47:09;;;;;;;2.85;0.75;;;;;;;15.35;100.00;101090.22;5031402;28;20421;-47
2022/07/30 05:49:34;;;;;;;1.38;0.95;;;;;;;15.39;100.00;101096.81;5032933;28;20398;-47
2022/07/30 05:51:59;;;;;;;1.90;1.20;;;;;;;15.46;100.00;101091.44;5026426;28;20022;-52
2022/07/30 05:54:25;;;;;;;3.40;1.17;;;;;;;15.56;100.00;101096.38;5024430;28;20033;-48
2022/07/30 05:56:50;;;;;;;4.57;1.45;;;;;;;15.64;100.00;101093.47;5030804;28;20398;-51
2022/07/30 05:59:15;;;;;;;1.38;0.73;;;;;;;15.70;100.00;101092.69;5021530;28;20378;-54
2022/07/30 06:01:41;;;;;;;1.13;1.02;;;;;;;15.77;100.00;101093.47;5027665;28;20490;-48
2022/07/30 06:04:06;;;;;;;1.58;0.90;;;;;;;15.83;100.00;101089.16;5021650;28;20033;-53
2022/07/30 06:06:31;;;;;;;1.23;0.85;;;;;;;15.89;100.00;101089.09;5028022;28;20462;-50
2022/07/30 06:08:57;;;;;;;5.38;1.33;;;;;;;15.97;100.00;101074.69;5018696;28;20494;-51
2022/07/30 06:11:22;;;;;;;3.88;1.40;;;;;;;16.06;100.00;101080.63;5026454;28;20444;-51
2022/07/30 06:13:48;;;;;;;3.97;1.08;;;;;;;16.14;100.00;101069.69;5028112;28;20045;-52
2022/07/30 06:16:13;;;;;;;4.90;1.30;;;;;;;16.22;100.00;101076.63;5028397;28;20063;-47
2022/07/30 06:18:39;;;;;;;1.73;0.70;;;;;;;16.26;100.00;101073.34;5025229;28;20112;-52
2022/07/30 06:21:04;;;;;;;5.32;0.85;;;;;;;16.30;100.00;101074.53;5013350;28;20038;-51
2022/07/30 06:23:30;;;;;;;0.60;0.55;;;;;;;16.33;100.00;101082.13;5017057;28;20490;-50
2022/07/30 06:25:55;;;;;;;2.92;0.88;;;;;;;16.34;100.00;101081.09;5022940;28;20021;-53
2022/07/30 06:28:20;;;;;;;5.00;2.08;;;;;;;16.40;100.00;101086.63;5026925;28;20109;-51
2022/07/30 06:30:47;;;;;;;1.48;0.60;;;;;;;16.45;100.00;101084.94;5016670;28;20040;-52
2022/07/30 06:33:14;;;;;;;1.05;1.05;;;;;;;16.53;100.00;101073.16;5015239;28;20500;-51
2022/07/30 06:35:39;;;;;;;1.17;0.52;;;;;;;16.61;100.00;101075.56;5020841;28;20025;-52
2022/07/30 06:38:05;;;;;;;1.02;0.68;;;;;;;16.72;100.00;101052.63;5016425;28;20549;-53
2022/07/30 06:40:30;;;;;;;2.15;0.75;;;;;;;16.77;100.00;101055.47;5017923;28;20029;-48
2022/07/30 06:42:55;;;;;;;0.60;0.57;;;;;;;16.84;100.00;101056.28;5020951;28;20033;-50
2022/07/30 06:45:21;;;;;;;2.38;0.80;;;;;;;16.93;100.00;101057.63;5023339;28;20025;-50
2022/07/30 06:47:46;;;;;;;6.80;0.52;;;;;;;17.00;100.00;101058.41;5023118;28;20053;-49
2022/07/30 06:50:11;;;;;;;4.13;1.80;;;;;;;17.06;100.00;101059.38;5022410;28;20026;-52
2022/07/30 06:52:37;;;;;;;2.17;0.68;;;;;;;17.09;100.00;101061.66;5028035;28;20037;-52
2022/07/30 06:55:03;;;;;;;4.40;1.15;;;;;;;17.09;100.00;101056.28;5020779;28;20030;-52
2022/07/30 06:57:28;;;;;;;0.85;0.55;;;;;;;17.10;100.00;101063.28;5027583;28;20378;-51
2022/07/30 06:59:54;;;;;;;1.55;0.52;;;;;;;17.11;100.00;101067.59;5019000;28;20026;-49
2022/07/30 07:02:19;;;;;;;1.20;0.52;;;;;;;17.26;100.00;101069.09;5027338;28;20033;-47
2022/07/30 07:04:44;;;;;;;2.97;0.82;;;;;;;17.39;100.00;101068.97;5017747;28;20057;-49
2022/07/30 07:07:10;;;;;;;1.42;0.35;;;;;;;17.55;100.00;101071.06;5030146;28;20039;-50
2022/07/30 07:09:35;;;;;;;3.03;0.50;;;;;;;17.76;100.00;101067.16;5011789;28;20046;-51
2022/07/30 07:12:01;;;;;;;1.33;0.55;;;;;;;18.00;100.00;101065.44;5013515;28;20482;-50
2022/07/30 07:14:26;;;;;;;2.67;0.50;;;;;;;18.22;100.00;101063.06;5011512;28;20109;-50
2022/07/30 07:16:51;;;;;;;3.88;1.05;;;;;;;18.40;100.00;101067.56;5014099;28;20238;-50
2022/07/30 07:19:17;;;;;;;2.17;1.33;;;;;;;18.55;100.00;101067.16;5020429;28;20025;-53
2022/07/30 07:21:42;;;;;;;0.60;0.40;;;;;;;18.72;100.00;101064.63;5017466;28;20033;-53
2022/07/30 07:24:08;;;;;;;4.35;0.65;;;;;;;18.92;100.00;101049.03;5015778;28;20533;-52
2022/07/30 07:26:33;;;;;;;1.00;0.25;;;;;;;19.05;100.00;101053.38;5017187;28;20030;-53
2022/07/30 07:28:59;;;;;;;4.75;0.20;;;;;;;19.22;100.00;101055.34;5017409;28;20018;-51
2022/07/30 07:31:25;;;;;;;14.45;0.60;;;;;;;19.31;100.00;101053.91;5016013;28;20064;-49
2022/07/30 07:33:53;;;;;;;4.55;0.88;;;;;;;19.26;100.00;101054.66;5015528;28;20018;-54
2022/07/30 07:36:19;;;;;;;1.17;0.55;;;;;;;19.27;100.00;101064.34;5020506;28;20025;-55
2022/07/30 07:38:44;;;;;;;7.80;0.30;;;;;;;19.22;100.00;101063.41;5022647;28;20052;-51
2022/07/30 07:41:10;;;;;;;6.15;0.52;;;;;;;19.27;100.00;101063.53;5014299;28;20035;-50
2022/07/30 07:43:35;;;;;;;1.27;0.38;;;;;;;19.44;100.00;101060.94;5023410;28;20033;-54
2022/07/30 07:46:01;;;;;;;0.98;0.10;;;;;;;19.67;100.00;101063.63;5018335;28;20060;-50
2022/07/30 07:48:26;;;;;;;1.20;0.32;;;;;;;19.85;100.00;101059.13;5017130;28;20511;-48
2022/07/30 07:50:52;;;;;;;12.15;0.90;;;;;;;19.88;100.00;101061.34;5012362;28;20026;-52
2022/07/30 07:53:17;;;;;;;2.08;0.85;;;;;;;19.79;100.00;101067.09;5018084;28;20029;-53
2022/07/30 07:55:42;;;;;;;1.73;0.10;;;;;;;19.75;100.00;101063.25;5026249;28;20406;-55
2022/07/30 07:58:10;;;;;;;0.40;0.20;;;;;;;19.70;100.00;101068.53;5023243;28;20113;-53
2022/07/30 08:00:35;;;;;;;1.17;0.10;;;;;;;19.82;100.00;101069.31;5015153;28;20018;-54
2022/07/30 08:03:01;;;;;;;3.72;0.10;;;;;;;19.88;100.00;101066.72;5025178;28;20045;-52
2022/07/30 08:05:26;;;;;;;2.03;0.95;;;;;;;19.91;100.00;101077.03;5006731;28;20033;-52
2022/07/30 08:07:52;;;;;;;1.33;0.43;;;;;;;19.92;100.00;101075.97;5022878;28;20129;-50
2022/07/30 08:10:17;;;;;;;0.47;0.30;;;;;;;19.97;100.00;101076.06;5020414;28;20058;-53
2022/07/30 08:12:43;;;;;;;4.55;0.10;;;;;;;20.03;100.00;101075.94;5028987;28;20124;-53
2022/07/30 08:15:09;;;;;;;0.80;0.43;;;;;;;20.02;100.00;101079.66;5012054;28;20408;-53
2022/07/30 08:17:41;;;;;;;1.25;0.75;;;;;;;20.14;100.00;101068.06;5027765;28;20030;-49
2022/07/30 08:20:07;;;;;;;0.20;0.20;;;;;;;20.54;100.00;101070.69;5015190;28;20091;-51
2022/07/30 08:22:33;;;;;;;0.65;0.13;;;;;;;20.84;100.00;101070.38;5019885;28;20091;-49
2022/07/30 08:24:59;;;;;;;0.28;0.20;;;;;;;20.95;100.00;101074.06;5028515;28;20025;-53
2022/07/30 08:27:25;;;;;;;1.40;0.25;;;;;;;21.00;100.00;101078.72;5018979;28;20029;-53
2022/07/30 08:29:50;;;;;;;0.38;0.10;;;;;;;20.79;100.00;101077.59;5029241;28;20106;-53
2022/07/30 08:32:16;;;;;;;0.80;0.10;;;;;;;20.85;100.00;101084.69;5021935;28;20116;-57
2022/07/30 08:34:41;;;;;;;1.10;0.10;;;;;;;20.84;100.00;101080.38;5017803;28;20445;-57
2022/07/30 08:37:06;;;;;;;2.50;0.10;;;;;;;20.94;100.00;101082.41;5011839;28;20053;-54
2022/07/30 08:39:32;;;;;;;2.28;0.10;;;;;;;20.77;100.00;101077.81;5016147;28;20048;-59
2022/07/30 08:41:58;;;;;;;0.95;0.88;;;;;;;20.92;100.00;101079.94;5017783;28;20331;-58
2022/07/30 08:44:23;;;;;;;9.00;1.50;;;;;;;21.10;100.00;101066.22;5020410;28;20589;-55
2022/07/30 08:46:52;;;;;;;0.98;0.55;;;;;;;21.26;100.00;101077.22;5021156;28;20030;-56
2022/07/30 08:49:18;;;;;;;0.80;0.10;;;;;;;21.31;100.00;101080.81;5022195;28;20048;-56
2022/07/30 08:51:43;;;;;;;1.13;0.20;;;;;;;21.39;100.00;101082.28;5024981;28;20773;-55
2022/07/30 08:54:09;;;;;;;0.10;0.00;;;;;;;21.39;100.00;101068.81;5018105;28;20022;-51
2022/07/30 08:56:34;;;;;;;1.95;0.40;;;;;;;21.58;100.00;101063.94;5018504;28;20368;-53
2022/07/30 08:59:00;;;;;;;0.65;0.10;;;;;;;21.73;100.00;101071.41;5012759;28;20080;-50
2022/07/30 09:01:26;;;;;;;2.00;0.17;;;;;;;21.76;100.00;101060.09;5020465;28;20104;-54
2022/07/30 09:03:51;;;;;;;0.25;0.00;;;;;;;21.90;100.00;101065.94;5026535;28;20131;-47
2022/07/30 09:06:17;;;;;;;2.38;0.40;;;;;;;21.87;100.00;101071.88;5033401;28;20252;-48
2022/07/30 09:08:42;;;;;;;1.30;0.03;;;;;;;21.82;100.00;101064.50;5022673;28;20086;-49
2022/07/30 09:11:08;;;;;;;0.20;0.10;;;;;;;21.61;100.00;101057.22;5016816;28;20112;-50
2022/07/30 09:13:40;;;;;;;0.52;0.10;;;;;;;21.86;100.00;101054.81;5018925;28;21141;-55
2022/07/30 09:16:06;;;;;;;1.67;0.20;;;;;;;22.02;100.00;101055.00;5025714;28;20099;-48
2022/07/30 09:18:38;;;;;;;0.08;0.00;;;;;;;22.00;100.00;101056.09;5020054;28;20083;-52
2022/07/30 09:21:14;;;;;;;0.65;0.30;;;;;;;21.82;100.00;101056.41;5014330;28;20064;-55
2022/07/30 09:23:40;;;;;;;1.85;0.10;;;;;;;22.00;100.00;101056.09;5019595;28;20036;-47
2022/07/30 09:26:05;;;;;;;0.28;0.28;;;;;;;22.12;100.00;101060.50;5018832;28;20037;-49
2022/07/30 09:28:33;;;;;;;0.10;0.08;;;;;;;22.23;100.00;101065.00;5015856;28;20045;-53
2022/07/30 09:30:58;;;;;;;3.20;0.00;;;;;;;22.24;100.00;101063.91;5020185;28;20084;-51
2022/07/30 09:33:37;;;;;;;0.00;0.00;;;;;;;22.36;100.00;101059.19;5018736;28;20434;-49
2022/07/30 09:36:10;;;;;;;1.35;0.20;;;;;;;22.35;100.00;101068.34;5019939;28;20264;-55
2022/07/30 09:38:44;;;;;;;0.57;0.00;;;;;;;22.07;100.00;101061.28;5022066;28;20072;-55
2022/07/30 09:41:11;;;;;;;0.00;0.00;;;;;;;21.91;100.00;101068.38;5020854;28;20032;-54
2022/07/30 09:43:50;;;;;;;0.30;0.00;;;;;;;21.89;100.00;101067.84;5022061;28;20449;-54
2022/07/30 09:46:16;;;;;;;1.52;0.32;;;;;;;22.26;100.00;101079.88;5015639;28;20033;-49
2022/07/30 09:48:43;;;;;;;2.30;0.30;;;;;;;22.42;100.00;101074.38;5015289;28;20160;-55
2022/07/30 09:51:09;;;;;;;1.17;0.05;;;;;;;22.33;100.00;101080.47;5008200;28;20036;-56
2022/07/30 09:53:35;;;;;;;0.80;0.65;;;;;;;22.49;100.00;101081.47;5021680;28;20037;-54
2022/07/30 09:56:24;;;;;;;0.00;0.00;;;;;;;22.45;100.00;101077.63;5028589;28;20021;-52
2022/07/30 09:58:50;;;;;;;1.00;0.00;;;;;;;22.45;100.00;101067.63;5031519;28;20425;-52
2022/07/30 10:01:15;;;;;;;1.13;0.08;;;;;;;22.68;100.00;101062.97;5021170;28;20033;-48
2022/07/30 10:03:42;;;;;;;4.20;0.47;;;;;;;22.93;100.00;101073.19;5018657;28;20482;-54
2022/07/30 10:06:08;;;;;;;1.02;0.00;;;;;;;22.97;100.00;101068.91;5021133;28;20029;-52
2022/07/30 10:08:46;;;;;;;1.23;0.08;;;;;;;22.91;100.00;101069.91;5020541;28;20036;-57
2022/07/30 10:11:14;;;;;;;0.90;0.20;;;;;;;22.73;100.00;101068.44;5024409;28;20053;-56
2022/07/30 10:13:42;;;;;;;0.52;0.32;;;;;;;22.88;100.00;101070.44;5033648;28;20115;-56
2022/07/30 10:16:08;;;;;;;2.05;0.10;;;;;;;23.02;100.00;101071.66;5035012;28;20037;-49
2022/07/30 10:18:35;;;;;;;1.40;0.00;;;;;;;23.18;100.00;101076.09;5022443;28;20363;-47
2022/07/30 10:21:02;;;;;;;0.73;0.00;;;;;;;23.37;100.00;101062.94;5022647;28;20119;-57
2022/07/30 10:23:28;;;;;;;0.40;0.05;;;;;;;24.06;100.00;101059.19;5024189;28;20385;-49
2022/07/30 10:25:57;;;;;;;0.17;0.10;;;;;;;24.19;100.00;101067.88;5023637;28;20120;-51
2022/07/30 10:28:24;;;;;;;0.10;0.00;;;;;;;24.05;100.00;101073.00;5024850;28;20022;-56
2022/07/30 10:30:50;;;;;;;1.92;0.25;;;;;;;24.01;100.00;101066.47;5025153;28;20033;-56
2022/07/30 10:33:16;;;;;;;21.02;0.63;;;;;;;24.19;100.00;101074.13;5024833;28;20108;-57
2022/07/30 10:35:42;;;;;;;0.57;0.00;;;;;;;24.33;100.00;101074.41;5017794;28;20025;-56
2022/07/30 10:38:10;;;;;;;1.60;0.10;;;;;;;24.51;100.00;101071.22;5027535;28;20352;-51
2022/07/30 10:40:42;;;;;;;0.40;0.00;;;;;;;24.65;100.00;101070.69;5013060;28;20036;-55
2022/07/30 10:43:35;;;;;;;1.10;0.10;;;;;;;24.76;100.00;101066.91;5023030;28;20038;-50
2022/07/30 10:46:12;;;;;;;0.25;0.00;;;;;;;24.88;100.00;101070.13;5021603;28;20033;-50
2022/07/30 10:48:38;;;;;;;0.75;0.10;;;;;;;24.73;100.00;101062.84;5017165;28;20030;-52
2022/07/30 10:51:04;;;;;;;0.63;0.10;;;;;;;24.64;100.00;101069.88;5014809;28;20041;-48
2022/07/30 10:53:40;;;;;;;0.15;0.10;;;;;;;24.28;100.00;101066.28;5016878;28;20029;-56
2022/07/30 10:56:23;;;;;;;0.10;0.03;;;;;;;23.98;100.00;101067.00;5014046;28;20151;-49
2022/07/30 10:59:02;;;;;;;0.85;0.03;;;;;;;23.92;100.00;101058.06;5023026;28;20091;-53
2022/07/30 11:01:48;;;;;;;0.40;0.10;;;;;;;23.88;100.00;101059.66;5033649;28;20460;-55
2022/07/30 11:04:24;;;;;;;4.47;0.05;;;;;;;23.63;100.00;101053.06;5029720;28;20572;-53
2022/07/30 11:06:50;;;;;;;1.00;0.03;;;;;;;23.57;100.00;101053.28;5026293;28;20039;-55
2022/07/30 11:09:39;;;;;;;0.00;0.00;;;;;;;23.48;100.00;101047.56;5020197;28;20061;-49
2022/07/30 11:12:06;;;;;;;0.17;0.10;;;;;;;23.40;100.00;101056.19;5031975;28;20047;-50
2022/07/30 11:14:47;;;;;;;1.48;0.08;;;;;;;23.14;100.00;101058.75;5019488;28;20076;-51
2022/07/30 11:17:14;;;;;;;0.00;0.00;;;;;;;22.73;100.00;101058.41;5023761;28;20037;-55